sensor_id;sensor_type;location;lat;lon;timestamp;P1;durP1;ratioP1;P2;durP2;ratioP2
58091;SDS011;43896;48.178;11.578;2023-06-14T04:37:18;7.40;;;4.18;;
58091;SDS011;43896;48.178;11.578;2023-06-14T04:39:38;6.97;;;4.20;;
58091;SDS011;43896;48.178;11.578;2023-06-14T04:42:04;5.88;;;3.58;;
58091;SDS011;43896;48.178;11.578;2023-06-14T04:44:29;6.95;;;3.90;;
58091;SDS011;43896;48.178;11.578;2023-06-14T04:46:57;6.07;;;3.75;;
58091;SDS011;43896;48.178;11.578;2023-06-14T04:49:23;7.15;;;3.97;;
58091;SDS011;43896;48.178;11.578;2023-06-14T04:51:49;7.90;;;4.18;;
58091;SDS011;43896;48.178;11.578;2023-06-14T04:54:24;7.18;;;4.03;;
58091;SDS011;43896;48.178;11.578;2023-06-14T04:56:52;6.25;;;4.00;;
58091;SDS011;43896;48.178;11.578;2023-06-14T04:59:20;7.53;;;3.70;;
58091;SDS011;43896;48.178;11.578;2023-06-14T05:01:48;6.70;;;4.07;;
58091;SDS011;43896;48.178;11.578;2023-06-14T05:04:14;7.18;;;3.97;;
58091;SDS011;43896;48.178;11.578;2023-06-14T05:06:41;6.07;;;3.80;;
58091;SDS011;43896;48.178;11.578;2023-06-14T05:09:10;7.25;;;4.28;;
58091;SDS011;43896;48.178;11.578;2023-06-14T05:11:35;7.78;;;3.90;;
58091;SDS011;43896;48.178;11.578;2023-06-14T05:14:01;7.95;;;4.13;;
58091;SDS011;43896;48.178;11.578;2023-06-14T05:16:26;7.32;;;3.90;;
58091;SDS011;43896;48.178;11.578;2023-06-14T05:18:52;6.20;;;3.70;;
58091;SDS011;43896;48.178;11.578;2023-06-14T05:21:18;6.15;;;3.67;;
58091;SDS011;43896;48.178;11.578;2023-06-14T05:23:44;8.80;;;4.03;;
58091;SDS011;43896;48.178;11.578;2023-06-14T05:26:10;7.53;;;3.70;;
58091;SDS011;43896;48.178;11.578;2023-06-14T05:28:35;7.03;;;3.70;;
58091;SDS011;43896;48.178;11.578;2023-06-14T05:31:01;7.82;;;3.58;;
58091;SDS011;43896;48.178;11.578;2023-06-14T05:33:27;7.03;;;3.90;;
58091;SDS011;43896;48.178;11.578;2023-06-14T05:35:52;8.38;;;3.90;;
58091;SDS011;43896;48.178;11.578;2023-06-14T05:38:23;9.07;;;3.88;;
58091;SDS011;43896;48.178;11.578;2023-06-14T05:40:48;7.88;;;4.05;;
58091;SDS011;43896;48.178;11.578;2023-06-14T05:43:14;7.22;;;3.60;;
58091;SDS011;43896;48.178;11.578;2023-06-14T05:45:39;8.38;;;3.88;;
58091;SDS011;43896;48.178;11.578;2023-06-14T05:48:05;6.25;;;3.50;;
58091;SDS011;43896;48.178;11.578;2023-06-14T05:50:30;7.53;;;3.85;;
58091;SDS011;43896;48.178;11.578;2023-06-14T05:52:55;8.70;;;3.60;;
58091;SDS011;43896;48.178;11.578;2023-06-14T05:55:21;6.55;;;4.00;;
58091;SDS011;43896;48.178;11.578;2023-06-14T05:57:46;9.55;;;4.32;;
58091;SDS011;43896;48.178;11.578;2023-06-14T06:00:13;7.35;;;4.15;;
58091;SDS011;43896;48.178;11.578;2023-06-14T06:02:42;6.75;;;3.58;;
58091;SDS011;43896;48.178;11.578;2023-06-14T06:05:09;8.63;;;4.05;;
58091;SDS011;43896;48.178;11.578;2023-06-14T06:07:37;8.23;;;3.95;;
58091;SDS011;43896;48.178;11.578;2023-06-14T06:10:05;8.98;;;3.70;;
58091;SDS011;43896;48.178;11.578;2023-06-14T06:12:31;6.18;;;3.97;;
58091;SDS011;43896;48.178;11.578;2023-06-14T06:14:57;9.30;;;4.18;;
58091;SDS011;43896;48.178;11.578;2023-06-14T06:17:24;8.90;;;4.00;;
58091;SDS011;43896;48.178;11.578;2023-06-14T06:19:50;7.32;;;4.10;;
58091;SDS011;43896;48.178;11.578;2023-06-14T06:22:15;7.93;;;4.15;;
58091;SDS011;43896;48.178;11.578;2023-06-14T06:24:40;8.38;;;4.50;;
58091;SDS011;43896;48.178;11.578;2023-06-14T06:27:06;8.25;;;3.55;;
58091;SDS011;43896;48.178;11.578;2023-06-14T06:29:33;7.93;;;4.20;;
58091;SDS011;43896;48.178;11.578;2023-06-14T06:31:58;8.10;;;4.10;;
58091;SDS011;43896;48.178;11.578;2023-06-14T06:34:24;8.18;;;4.20;;
58091;SDS011;43896;48.178;11.578;2023-06-14T06:36:49;7.07;;;4.20;;
58091;SDS011;43896;48.178;11.578;2023-06-14T06:39:14;8.20;;;4.20;;
58091;SDS011;43896;48.178;11.578;2023-06-14T06:41:40;8.25;;;3.80;;
58091;SDS011;43896;48.178;11.578;2023-06-14T06:44:05;8.05;;;4.28;;
58091;SDS011;43896;48.178;11.578;2023-06-14T06:46:34;8.50;;;4.10;;
58091;SDS011;43896;48.178;11.578;2023-06-14T06:49:04;8.55;;;3.97;;
58091;SDS011;43896;48.178;11.578;2023-06-14T06:51:30;8.93;;;3.35;;
58091;SDS011;43896;48.178;11.578;2023-06-14T06:53:55;8.02;;;3.83;;
58091;SDS011;43896;48.178;11.578;2023-06-14T06:56:21;8.18;;;3.70;;
58091;SDS011;43896;48.178;11.578;2023-06-14T06:58:50;8.45;;;3.97;;
58091;SDS011;43896;48.178;11.578;2023-06-14T07:01:15;7.43;;;3.90;;
58091;SDS011;43896;48.178;11.578;2023-06-14T07:03:42;8.38;;;4.55;;
58091;SDS011;43896;48.178;11.578;2023-06-14T07:06:07;8.00;;;4.18;;
58091;SDS011;43896;48.178;11.578;2023-06-14T07:08:33;13.02;;;3.80;;
58091;SDS011;43896;48.178;11.578;2023-06-14T07:10:58;7.53;;;3.60;;
58091;SDS011;43896;48.178;11.578;2023-06-14T07:13:23;7.40;;;4.40;;
58091;SDS011;43896;48.178;11.578;2023-06-14T07:15:49;8.02;;;4.10;;
58091;SDS011;43896;48.178;11.578;2023-06-14T07:18:14;8.40;;;3.90;;
58091;SDS011;43896;48.178;11.578;2023-06-14T07:20:40;8.55;;;3.90;;
58091;SDS011;43896;48.178;11.578;2023-06-14T07:23:05;8.48;;;3.70;;
58091;SDS011;43896;48.178;11.578;2023-06-14T07:25:30;8.10;;;4.10;;
58091;SDS011;43896;48.178;11.578;2023-06-14T07:27:56;7.47;;;3.60;;
58091;SDS011;43896;48.178;11.578;2023-06-14T07:30:21;7.63;;;3.67;;
58091;SDS011;43896;48.178;11.578;2023-06-14T07:32:50;8.88;;;3.88;;
58091;SDS011;43896;48.178;11.578;2023-06-14T07:35:17;9.20;;;3.25;;
58091;SDS011;43896;48.178;11.578;2023-06-14T07:37:42;6.18;;;3.45;;
58091;SDS011;43896;48.178;11.578;2023-06-14T07:40:08;8.20;;;4.20;;
58091;SDS011;43896;48.178;11.578;2023-06-14T07:42:35;9.05;;;4.07;;
58091;SDS011;43896;48.178;11.578;2023-06-14T07:45:01;7.22;;;3.40;;
58091;SDS011;43896;48.178;11.578;2023-06-14T07:47:27;10.65;;;3.60;;
58091;SDS011;43896;48.178;11.578;2023-06-14T07:49:52;7.57;;;3.75;;
58091;SDS011;43896;48.178;11.578;2023-06-14T07:52:17;8.70;;;3.53;;
58091;SDS011;43896;48.178;11.578;2023-06-14T07:54:43;7.63;;;3.40;;
58091;SDS011;43896;48.178;11.578;2023-06-14T07:57:08;9.23;;;3.40;;
58091;SDS011;43896;48.178;11.578;2023-06-14T07:59:33;8.27;;;3.70;;
58091;SDS011;43896;48.178;11.578;2023-06-14T08:01:59;5.90;;;3.10;;
58091;SDS011;43896;48.178;11.578;2023-06-14T08:04:24;7.40;;;3.50;;
58091;SDS011;43896;48.178;11.578;2023-06-14T08:06:50;5.15;;;2.95;;
58091;SDS011;43896;48.178;11.578;2023-06-14T08:09:15;6.03;;;3.00;;
58091;SDS011;43896;48.178;11.578;2023-06-14T08:11:41;6.78;;;3.30;;
58091;SDS011;43896;48.178;11.578;2023-06-14T08:14:08;6.45;;;3.50;;
58091;SDS011;43896;48.178;11.578;2023-06-14T08:16:33;7.15;;;3.33;;
58091;SDS011;43896;48.178;11.578;2023-06-14T08:18:59;5.38;;;3.10;;
58091;SDS011;43896;48.178;11.578;2023-06-14T08:21:24;6.82;;;3.13;;
58091;SDS011;43896;48.178;11.578;2023-06-14T08:23:52;5.63;;;2.90;;
58091;SDS011;43896;48.178;11.578;2023-06-14T08:26:18;6.82;;;3.30;;
58091;SDS011;43896;48.178;11.578;2023-06-14T08:28:43;5.15;;;3.08;;
58091;SDS011;43896;48.178;11.578;2023-06-14T08:31:09;6.75;;;3.03;;
58091;SDS011;43896;48.178;11.578;2023-06-14T08:33:34;7.20;;;3.05;;
58091;SDS011;43896;48.178;11.578;2023-06-14T08:35:59;6.50;;;2.88;;
58091;SDS011;43896;48.178;11.578;2023-06-14T08:38:24;6.57;;;2.70;;
58091;SDS011;43896;48.178;11.578;2023-06-14T08:40:50;4.63;;;2.92;;
58091;SDS011;43896;48.178;11.578;2023-06-14T08:43:16;6.50;;;2.90;;
58091;SDS011;43896;48.178;11.578;2023-06-14T08:45:41;6.22;;;2.97;;
58091;SDS011;43896;48.178;11.578;2023-06-14T08:48:07;5.70;;;3.10;;
58091;SDS011;43896;48.178;11.578;2023-06-14T08:50:32;9.00;;;2.83;;
58091;SDS011;43896;48.178;11.578;2023-06-14T08:53:01;5.97;;;3.10;;
58091;SDS011;43896;48.178;11.578;2023-06-14T08:55:27;8.23;;;3.28;;
58091;SDS011;43896;48.178;11.578;2023-06-14T08:57:55;7.63;;;3.03;;
58091;SDS011;43896;48.178;11.578;2023-06-14T09:00:22;5.63;;;3.00;;
58091;SDS011;43896;48.178;11.578;2023-06-14T09:02:50;6.28;;;2.80;;
58091;SDS011;43896;48.178;11.578;2023-06-14T09:05:20;7.65;;;2.80;;
58091;SDS011;43896;48.178;11.578;2023-06-14T09:07:46;4.72;;;2.70;;
58091;SDS011;43896;48.178;11.578;2023-06-14T09:10:14;9.18;;;3.38;;
58091;SDS011;43896;48.178;11.578;2023-06-14T09:12:40;6.78;;;2.80;;
58091;SDS011;43896;48.178;11.578;2023-06-14T09:15:06;6.47;;;2.70;;
58091;SDS011;43896;48.178;11.578;2023-06-14T09:17:34;6.47;;;2.80;;
58091;SDS011;43896;48.178;11.578;2023-06-14T09:20:01;6.10;;;3.22;;
58091;SDS011;43896;48.178;11.578;2023-06-14T09:22:30;5.47;;;3.20;;
58091;SDS011;43896;48.178;11.578;2023-06-14T09:24:56;6.90;;;3.00;;
58091;SDS011;43896;48.178;11.578;2023-06-14T09:27:21;5.78;;;2.90;;
58091;SDS011;43896;48.178;11.578;2023-06-14T09:29:46;6.63;;;3.03;;
58091;SDS011;43896;48.178;11.578;2023-06-14T09:32:12;5.90;;;3.38;;
58091;SDS011;43896;48.178;11.578;2023-06-14T09:34:37;8.55;;;2.92;;
58091;SDS011;43896;48.178;11.578;2023-06-14T09:37:02;6.65;;;2.72;;
58091;SDS011;43896;48.178;11.578;2023-06-14T09:39:28;5.60;;;3.50;;
58091;SDS011;43896;48.178;11.578;2023-06-14T09:41:53;5.05;;;3.03;;
58091;SDS011;43896;48.178;11.578;2023-06-14T09:44:18;5.30;;;3.08;;
58091;SDS011;43896;48.178;11.578;2023-06-14T09:46:45;6.25;;;3.25;;
58091;SDS011;43896;48.178;11.578;2023-06-14T09:49:11;6.30;;;3.17;;
58091;SDS011;43896;48.178;11.578;2023-06-14T09:51:37;6.15;;;2.90;;
58091;SDS011;43896;48.178;11.578;2023-06-14T09:54:08;6.93;;;2.80;;
58091;SDS011;43896;48.178;11.578;2023-06-14T09:56:41;5.68;;;3.20;;
58091;SDS011;43896;48.178;11.578;2023-06-14T09:59:09;5.50;;;3.20;;
58091;SDS011;43896;48.178;11.578;2023-06-14T10:01:41;6.18;;;3.30;;
58091;SDS011;43896;48.178;11.578;2023-06-14T10:04:07;6.05;;;3.10;;
58091;SDS011;43896;48.178;11.578;2023-06-14T10:06:40;7.32;;;3.60;;
58091;SDS011;43896;48.178;11.578;2023-06-14T10:09:08;6.00;;;3.00;;
58091;SDS011;43896;48.178;11.578;2023-06-14T10:11:35;5.70;;;3.10;;
58091;SDS011;43896;48.178;11.578;2023-06-14T10:14:02;5.68;;;3.05;;
58091;SDS011;43896;48.178;11.578;2023-06-14T10:16:37;5.53;;;3.15;;
58091;SDS011;43896;48.178;11.578;2023-06-14T10:27:10;5.32;;;3.28;;
58091;SDS011;43896;48.178;11.578;2023-06-14T10:32:20;6.80;;;3.20;;
58091;SDS011;43896;48.178;11.578;2023-06-14T10:34:51;5.60;;;3.22;;
58091;SDS011;43896;48.178;11.578;2023-06-14T10:37:19;5.90;;;3.10;;
58091;SDS011;43896;48.178;11.578;2023-06-14T10:39:44;5.55;;;2.70;;
58091;SDS011;43896;48.178;11.578;2023-06-14T10:45:00;5.80;;;3.10;;
58091;SDS011;43896;48.178;11.578;2023-06-14T10:47:29;7.18;;;3.22;;
58091;SDS011;43896;48.178;11.578;2023-06-14T10:50:04;7.70;;;3.30;;
58091;SDS011;43896;48.178;11.578;2023-06-14T10:52:32;6.95;;;3.30;;
58091;SDS011;43896;48.178;11.578;2023-06-14T10:55:12;6.38;;;3.10;;
58091;SDS011;43896;48.178;11.578;2023-06-14T10:57:43;4.75;;;3.00;;
58091;SDS011;43896;48.178;11.578;2023-06-14T11:00:10;6.22;;;3.30;;
58091;SDS011;43896;48.178;11.578;2023-06-14T11:08:19;6.90;;;3.00;;
58091;SDS011;43896;48.178;11.578;2023-06-14T11:11:06;5.80;;;3.22;;
58091;SDS011;43896;48.178;11.578;2023-06-14T11:13:33;7.43;;;3.35;;
58091;SDS011;43896;48.178;11.578;2023-06-14T11:16:01;5.40;;;3.03;;
58091;SDS011;43896;48.178;11.578;2023-06-14T11:18:28;5.05;;;2.90;;
58091;SDS011;43896;48.178;11.578;2023-06-14T11:20:53;5.10;;;3.10;;
58091;SDS011;43896;48.178;11.578;2023-06-14T11:23:19;5.93;;;3.10;;
58091;SDS011;43896;48.178;11.578;2023-06-14T11:25:52;9.05;;;3.28;;
58091;SDS011;43896;48.178;11.578;2023-06-14T11:28:17;5.43;;;3.17;;
58091;SDS011;43896;48.178;11.578;2023-06-14T11:30:45;6.63;;;3.10;;
58091;SDS011;43896;48.178;11.578;2023-06-14T11:33:11;6.25;;;3.15;;
58091;SDS011;43896;48.178;11.578;2023-06-14T11:35:37;5.20;;;3.00;;
58091;SDS011;43896;48.178;11.578;2023-06-14T11:38:02;5.25;;;3.28;;
58091;SDS011;43896;48.178;11.578;2023-06-14T11:40:27;5.32;;;3.10;;
58091;SDS011;43896;48.178;11.578;2023-06-14T11:43:00;6.05;;;3.33;;
58091;SDS011;43896;48.178;11.578;2023-06-14T11:45:27;5.25;;;2.83;;
58091;SDS011;43896;48.178;11.578;2023-06-14T11:47:55;4.38;;;3.10;;
58091;SDS011;43896;48.178;11.578;2023-06-14T11:50:21;6.32;;;3.03;;
58091;SDS011;43896;48.178;11.578;2023-06-14T11:52:53;5.05;;;3.10;;
58091;SDS011;43896;48.178;11.578;2023-06-14T11:55:24;5.57;;;3.20;;
58091;SDS011;43896;48.178;11.578;2023-06-14T11:57:50;5.43;;;2.83;;
58091;SDS011;43896;48.178;11.578;2023-06-14T12:00:17;6.15;;;3.20;;
58091;SDS011;43896;48.178;11.578;2023-06-14T12:02:52;4.32;;;2.95;;
58091;SDS011;43896;48.178;11.578;2023-06-14T12:05:21;6.10;;;3.10;;
58091;SDS011;43896;48.178;11.578;2023-06-14T12:07:47;6.38;;;3.17;;
58091;SDS011;43896;48.178;11.578;2023-06-14T12:10:13;6.93;;;3.00;;
58091;SDS011;43896;48.178;11.578;2023-06-14T12:12:40;6.35;;;3.28;;
58091;SDS011;43896;48.178;11.578;2023-06-14T12:15:07;4.72;;;3.15;;
58091;SDS011;43896;48.178;11.578;2023-06-14T12:17:36;6.00;;;3.15;;
58091;SDS011;43896;48.178;11.578;2023-06-14T12:20:07;6.13;;;3.00;;
58091;SDS011;43896;48.178;11.578;2023-06-14T12:22:38;8.05;;;3.15;;
58091;SDS011;43896;48.178;11.578;2023-06-14T12:25:04;5.53;;;3.38;;
58091;SDS011;43896;48.178;11.578;2023-06-14T12:27:30;8.82;;;3.83;;
58091;SDS011;43896;48.178;11.578;2023-06-14T12:30:01;5.88;;;2.80;;
58091;SDS011;43896;48.178;11.578;2023-06-14T12:32:28;5.53;;;3.20;;
58091;SDS011;43896;48.178;11.578;2023-06-14T12:34:54;4.65;;;2.92;;
58091;SDS011;43896;48.178;11.578;2023-06-14T12:37:20;6.18;;;2.97;;
58091;SDS011;43896;48.178;11.578;2023-06-14T12:39:45;7.45;;;3.47;;
58091;SDS011;43896;48.178;11.578;2023-06-14T12:42:11;4.95;;;3.20;;
58091;SDS011;43896;48.178;11.578;2023-06-14T12:44:36;4.80;;;3.05;;
58091;SDS011;43896;48.178;11.578;2023-06-14T12:47:05;4.32;;;2.70;;
58091;SDS011;43896;48.178;11.578;2023-06-14T12:49:32;4.88;;;2.95;;
58091;SDS011;43896;48.178;11.578;2023-06-14T12:51:58;8.93;;;3.20;;
58091;SDS011;43896;48.178;11.578;2023-06-14T12:54:23;5.10;;;3.17;;
58091;SDS011;43896;48.178;11.578;2023-06-14T12:56:50;5.00;;;3.10;;
58091;SDS011;43896;48.178;11.578;2023-06-14T12:59:16;6.40;;;3.38;;
58091;SDS011;43896;48.178;11.578;2023-06-14T13:01:42;6.75;;;3.38;;
58091;SDS011;43896;48.178;11.578;2023-06-14T13:04:07;6.25;;;3.30;;
58091;SDS011;43896;48.178;11.578;2023-06-14T13:06:33;11.80;;;3.40;;
58091;SDS011;43896;48.178;11.578;2023-06-14T13:08:58;7.25;;;3.13;;
58091;SDS011;43896;48.178;11.578;2023-06-14T13:11:24;5.07;;;3.35;;
58091;SDS011;43896;48.178;11.578;2023-06-14T13:13:49;5.00;;;3.33;;
58091;SDS011;43896;48.178;11.578;2023-06-14T13:16:14;6.35;;;2.90;;
58091;SDS011;43896;48.178;11.578;2023-06-14T13:18:40;6.03;;;3.35;;
58091;SDS011;43896;48.178;11.578;2023-06-14T13:21:05;7.35;;;3.10;;
58091;SDS011;43896;48.178;11.578;2023-06-14T13:23:30;4.65;;;3.10;;
58091;SDS011;43896;48.178;11.578;2023-06-14T13:25:55;5.25;;;3.00;;
58091;SDS011;43896;48.178;11.578;2023-06-14T13:28:21;6.20;;;2.83;;
58091;SDS011;43896;48.178;11.578;2023-06-14T13:30:46;5.55;;;2.95;;
58091;SDS011;43896;48.178;11.578;2023-06-14T13:33:13;5.28;;;2.70;;
58091;SDS011;43896;48.178;11.578;2023-06-14T13:35:38;6.82;;;3.13;;
58091;SDS011;43896;48.178;11.578;2023-06-14T13:38:04;4.60;;;3.10;;
58091;SDS011;43896;48.178;11.578;2023-06-14T13:40:29;5.28;;;2.80;;
58091;SDS011;43896;48.178;11.578;2023-06-14T13:42:55;4.97;;;2.90;;
58091;SDS011;43896;48.178;11.578;2023-06-14T13:45:20;7.32;;;3.40;;
58091;SDS011;43896;48.178;11.578;2023-06-14T13:47:45;6.47;;;3.20;;
58091;SDS011;43896;48.178;11.578;2023-06-14T13:50:13;7.18;;;3.00;;
58091;SDS011;43896;48.178;11.578;2023-06-14T13:52:39;6.43;;;2.83;;
58091;SDS011;43896;48.178;11.578;2023-06-14T13:55:05;5.88;;;3.08;;
58091;SDS011;43896;48.178;11.578;2023-06-14T13:57:30;7.55;;;3.20;;
58091;SDS011;43896;48.178;11.578;2023-06-14T13:59:56;4.93;;;3.25;;
58091;SDS011;43896;48.178;11.578;2023-06-14T14:02:26;5.10;;;2.90;;
58091;SDS011;43896;48.178;11.578;2023-06-14T14:04:51;5.35;;;3.20;;
58091;SDS011;43896;48.178;11.578;2023-06-14T14:07:18;6.18;;;3.28;;
58091;SDS011;43896;48.178;11.578;2023-06-14T14:09:45;6.05;;;3.08;;
58091;SDS011;43896;48.178;11.578;2023-06-14T14:12:10;5.32;;;3.15;;
58091;SDS011;43896;48.178;11.578;2023-06-14T14:14:36;5.97;;;3.15;;
58091;SDS011;43896;48.178;11.578;2023-06-14T14:17:01;6.15;;;2.97;;
58091;SDS011;43896;48.178;11.578;2023-06-14T14:19:27;5.38;;;3.10;;
58091;SDS011;43896;48.178;11.578;2023-06-14T14:21:52;5.00;;;3.08;;
58091;SDS011;43896;48.178;11.578;2023-06-14T14:24:21;6.32;;;3.13;;
58091;SDS011;43896;48.178;11.578;2023-06-14T14:26:46;5.38;;;3.20;;
58091;SDS011;43896;48.178;11.578;2023-06-14T14:29:13;5.70;;;3.00;;
58091;SDS011;43896;48.178;11.578;2023-06-14T14:31:41;6.43;;;3.30;;
58091;SDS011;43896;48.178;11.578;2023-06-14T14:34:07;6.82;;;3.20;;
58091;SDS011;43896;48.178;11.578;2023-06-14T14:36:32;5.68;;;2.95;;
58091;SDS011;43896;48.178;11.578;2023-06-14T14:39:02;4.90;;;2.83;;
58091;SDS011;43896;48.178;11.578;2023-06-14T14:43:57;5.55;;;2.95;;
58091;SDS011;43896;48.178;11.578;2023-06-14T14:46:23;6.20;;;3.38;;
58091;SDS011;43896;48.178;11.578;2023-06-14T14:48:49;5.80;;;3.15;;
58091;SDS011;43896;48.178;11.578;2023-06-14T14:51:15;6.53;;;3.40;;
58091;SDS011;43896;48.178;11.578;2023-06-14T14:53:40;6.75;;;3.38;;
58091;SDS011;43896;48.178;11.578;2023-06-14T14:56:06;6.88;;;3.00;;
58091;SDS011;43896;48.178;11.578;2023-06-14T14:58:31;6.63;;;3.20;;
58091;SDS011;43896;48.178;11.578;2023-06-14T15:00:56;9.25;;;3.17;;
58091;SDS011;43896;48.178;11.578;2023-06-14T15:03:22;6.43;;;3.40;;
58091;SDS011;43896;48.178;11.578;2023-06-14T15:05:47;8.30;;;3.10;;
58091;SDS011;43896;48.178;11.578;2023-06-14T15:08:12;5.00;;;3.17;;
58091;SDS011;43896;48.178;11.578;2023-06-14T15:10:41;5.15;;;3.25;;
58091;SDS011;43896;48.178;11.578;2023-06-14T15:13:07;8.27;;;3.23;;
58091;SDS011;43896;48.178;11.578;2023-06-14T15:15:35;6.20;;;3.13;;
58091;SDS011;43896;48.178;11.578;2023-06-14T15:18:01;7.30;;;3.05;;
58091;SDS011;43896;48.178;11.578;2023-06-14T15:20:27;5.10;;;3.03;;
58091;SDS011;43896;48.178;11.578;2023-06-14T15:22:53;6.22;;;3.30;;
58091;SDS011;43896;48.178;11.578;2023-06-14T15:25:24;5.63;;;3.20;;
58091;SDS011;43896;48.178;11.578;2023-06-14T15:27:50;7.40;;;3.30;;
58091;SDS011;43896;48.178;11.578;2023-06-14T15:30:16;5.55;;;2.80;;
58091;SDS011;43896;48.178;11.578;2023-06-14T15:32:41;6.63;;;3.33;;
58091;SDS011;43896;48.178;11.578;2023-06-14T15:35:06;5.90;;;3.08;;
58091;SDS011;43896;48.178;11.578;2023-06-14T15:37:32;5.45;;;3.10;;
58091;SDS011;43896;48.178;11.578;2023-06-14T15:39:57;6.85;;;2.90;;
58091;SDS011;43896;48.178;11.578;2023-06-14T15:42:22;5.32;;;3.28;;
58091;SDS011;43896;48.178;11.578;2023-06-14T15:44:48;6.30;;;3.28;;
58091;SDS011;43896;48.178;11.578;2023-06-14T15:47:13;6.47;;;3.17;;
58091;SDS011;43896;48.178;11.578;2023-06-14T15:49:39;8.55;;;3.40;;
58091;SDS011;43896;48.178;11.578;2023-06-14T15:52:04;4.97;;;3.08;;
58091;SDS011;43896;48.178;11.578;2023-06-14T15:54:31;5.75;;;3.30;;
58091;SDS011;43896;48.178;11.578;2023-06-14T15:56:57;7.10;;;3.53;;
58091;SDS011;43896;48.178;11.578;2023-06-14T15:59:23;6.70;;;3.10;;
58091;SDS011;43896;48.178;11.578;2023-06-14T16:01:48;5.45;;;3.20;;
58091;SDS011;43896;48.178;11.578;2023-06-14T16:04:14;6.05;;;3.53;;
58091;SDS011;43896;48.178;11.578;2023-06-14T16:06:39;5.45;;;3.42;;
58091;SDS011;43896;48.178;11.578;2023-06-14T16:09:04;7.35;;;3.53;;
58091;SDS011;43896;48.178;11.578;2023-06-14T16:11:30;6.80;;;3.25;;
58091;SDS011;43896;48.178;11.578;2023-06-14T16:13:56;5.63;;;3.20;;
58091;SDS011;43896;48.178;11.578;2023-06-14T16:16:21;6.28;;;3.53;;
58091;SDS011;43896;48.178;11.578;2023-06-14T16:18:47;6.35;;;3.25;;
58091;SDS011;43896;48.178;11.578;2023-06-14T16:21:13;6.75;;;3.30;;
58091;SDS011;43896;48.178;11.578;2023-06-14T16:23:38;8.82;;;3.85;;
58091;SDS011;43896;48.178;11.578;2023-06-14T16:26:04;6.47;;;3.90;;
58091;SDS011;43896;48.178;11.578;2023-06-14T16:28:30;6.25;;;3.80;;
58091;SDS011;43896;48.178;11.578;2023-06-14T16:30:56;5.93;;;3.28;;
58091;SDS011;43896;48.178;11.578;2023-06-14T16:33:22;4.93;;;3.20;;
58091;SDS011;43896;48.178;11.578;2023-06-14T16:35:47;8.13;;;3.42;;
58091;SDS011;43896;48.178;11.578;2023-06-14T16:38:12;5.72;;;3.25;;
58091;SDS011;43896;48.178;11.578;2023-06-14T16:40:38;5.38;;;3.45;;
58091;SDS011;43896;48.178;11.578;2023-06-14T16:43:03;4.60;;;3.05;;
58091;SDS011;43896;48.178;11.578;2023-06-14T16:45:28;8.10;;;3.45;;
58091;SDS011;43896;48.178;11.578;2023-06-14T16:47:54;7.80;;;3.25;;
58091;SDS011;43896;48.178;11.578;2023-06-14T16:50:19;6.57;;;3.25;;
58091;SDS011;43896;48.178;11.578;2023-06-14T16:52:45;5.97;;;3.65;;
58091;SDS011;43896;48.178;11.578;2023-06-14T16:55:10;7.90;;;3.40;;
58091;SDS011;43896;48.178;11.578;2023-06-14T16:57:37;5.68;;;3.58;;
58091;SDS011;43896;48.178;11.578;2023-06-14T17:00:03;5.43;;;3.22;;
58091;SDS011;43896;48.178;11.578;2023-06-14T17:02:30;5.68;;;3.30;;
58091;SDS011;43896;48.178;11.578;2023-06-14T17:04:55;6.63;;;3.50;;
58091;SDS011;43896;48.178;11.578;2023-06-14T17:07:20;7.32;;;3.60;;
58091;SDS011;43896;48.178;11.578;2023-06-14T17:09:45;6.00;;;3.38;;
58091;SDS011;43896;48.178;11.578;2023-06-14T17:12:11;6.75;;;3.38;;
58091;SDS011;43896;48.178;11.578;2023-06-14T17:14:36;8.18;;;3.85;;
58091;SDS011;43896;48.178;11.578;2023-06-14T17:17:02;9.02;;;3.72;;
58091;SDS011;43896;48.178;11.578;2023-06-14T17:19:28;7.38;;;3.78;;
58091;SDS011;43896;48.178;11.578;2023-06-14T17:21:53;7.85;;;3.50;;
58091;SDS011;43896;48.178;11.578;2023-06-14T17:24:19;6.82;;;3.30;;
58091;SDS011;43896;48.178;11.578;2023-06-14T17:26:44;8.00;;;3.83;;
58091;SDS011;43896;48.178;11.578;2023-06-14T17:29:10;5.63;;;3.13;;
58091;SDS011;43896;48.178;11.578;2023-06-14T17:31:35;7.82;;;3.42;;
58091;SDS011;43896;48.178;11.578;2023-06-14T17:34:01;6.50;;;3.33;;
58091;SDS011;43896;48.178;11.578;2023-06-14T17:36:26;6.43;;;3.42;;
58091;SDS011;43896;48.178;11.578;2023-06-14T17:38:52;10.77;;;3.42;;
58091;SDS011;43896;48.178;11.578;2023-06-14T17:41:17;7.05;;;3.72;;
58091;SDS011;43896;48.178;11.578;2023-06-14T17:43:43;5.78;;;3.42;;
58091;SDS011;43896;48.178;11.578;2023-06-14T17:46:08;7.80;;;3.42;;
58091;SDS011;43896;48.178;11.578;2023-06-14T17:48:34;5.90;;;3.47;;
58091;SDS011;43896;48.178;11.578;2023-06-14T17:51:02;5.20;;;3.50;;
58091;SDS011;43896;48.178;11.578;2023-06-14T17:53:29;5.90;;;3.08;;
58091;SDS011;43896;48.178;11.578;2023-06-14T17:55:55;6.53;;;3.40;;
58091;SDS011;43896;48.178;11.578;2023-06-14T17:58:20;5.45;;;3.25;;
58091;SDS011;43896;48.178;11.578;2023-06-14T18:00:47;5.72;;;3.47;;
58091;SDS011;43896;48.178;11.578;2023-06-14T18:03:12;6.40;;;3.53;;
58091;SDS011;43896;48.178;11.578;2023-06-14T18:05:38;5.38;;;3.35;;
58091;SDS011;43896;48.178;11.578;2023-06-14T18:08:06;6.07;;;3.47;;
58091;SDS011;43896;48.178;11.578;2023-06-14T18:10:31;8.38;;;3.40;;
58091;SDS011;43896;48.178;11.578;2023-06-14T18:12:57;6.10;;;3.40;;
58091;SDS011;43896;48.178;11.578;2023-06-14T18:15:22;6.05;;;3.45;;
58091;SDS011;43896;48.178;11.578;2023-06-14T18:17:48;7.00;;;3.40;;
58091;SDS011;43896;48.178;11.578;2023-06-14T18:20:15;6.25;;;3.67;;
58091;SDS011;43896;48.178;11.578;2023-06-14T18:22:41;5.65;;;3.63;;
58091;SDS011;43896;48.178;11.578;2023-06-14T18:25:07;6.55;;;3.30;;
58091;SDS011;43896;48.178;11.578;2023-06-14T18:27:32;6.97;;;3.63;;
58091;SDS011;43896;48.178;11.578;2023-06-14T18:29:57;5.70;;;3.30;;
58091;SDS011;43896;48.178;11.578;2023-06-14T18:32:23;6.80;;;3.55;;
58091;SDS011;43896;48.178;11.578;2023-06-14T18:34:48;6.78;;;3.60;;
58091;SDS011;43896;48.178;11.578;2023-06-14T18:37:14;9.93;;;5.20;;
58091;SDS011;43896;48.178;11.578;2023-06-14T18:39:39;9.20;;;5.20;;
58091;SDS011;43896;48.178;11.578;2023-06-14T18:42:05;8.20;;;3.90;;
58091;SDS011;43896;48.178;11.578;2023-06-14T18:44:31;8.32;;;3.78;;
58091;SDS011;43896;48.178;11.578;2023-06-14T18:46:56;7.85;;;3.30;;
58091;SDS011;43896;48.178;11.578;2023-06-14T18:49:22;8.48;;;3.42;;
58091;SDS011;43896;48.178;11.578;2023-06-14T18:51:47;7.18;;;3.63;;
58091;SDS011;43896;48.178;11.578;2023-06-14T18:54:12;7.30;;;3.45;;
58091;SDS011;43896;48.178;11.578;2023-06-14T18:56:38;5.97;;;3.22;;
58091;SDS011;43896;48.178;11.578;2023-06-14T18:59:03;6.18;;;3.53;;
58091;SDS011;43896;48.178;11.578;2023-06-14T19:01:29;7.22;;;3.35;;
58091;SDS011;43896;48.178;11.578;2023-06-14T19:03:55;5.20;;;3.50;;
58091;SDS011;43896;48.178;11.578;2023-06-14T19:06:20;5.82;;;3.47;;
58091;SDS011;43896;48.178;11.578;2023-06-14T19:08:49;6.97;;;3.50;;
58091;SDS011;43896;48.178;11.578;2023-06-14T19:11:15;5.78;;;3.72;;
58091;SDS011;43896;48.178;11.578;2023-06-14T19:13:41;5.55;;;3.47;;
58091;SDS011;43896;48.178;11.578;2023-06-14T19:16:06;6.47;;;3.60;;
58091;SDS011;43896;48.178;11.578;2023-06-14T19:18:32;5.20;;;3.47;;
58091;SDS011;43896;48.178;11.578;2023-06-14T19:20:58;6.18;;;3.90;;
58091;SDS011;43896;48.178;11.578;2023-06-14T19:23:23;6.13;;;3.35;;
58091;SDS011;43896;48.178;11.578;2023-06-14T19:25:49;6.65;;;4.00;;